Ajo, AZ

5:18 AM MST on October 01, 2014 (GMT -0700)
Buckeye Municipal | Change Station
CLOSE
Current Station
Airport
Location: Buckeye,
Elevation: 1033 ft
Nearby Weather Stations

Elev 1033 ft 33.42 °N, 112.69 °W | Updated 43 minutes ago

Clear
Clear
59 °F
Feels Like 59 °F
N
4
Wind Variable Wind from NW

Today
High -- | Low -- °F
--% Chance of Precip.
Yesterday
High -- | Low -- °F
Precip. -- in
6:25 AM 6:16 PM
Waxing Crescent, 47% visible
Pressure 29.76 in
Visibility 10.0 miles
Clouds Clear
Dew Point 48 °F
Humidity 67%
Rainfall 0.00 in
Snow Depth 1 in , 1 in , 0 in
UV 0 out of 12
Pollen 6.00 out of 12
Air Quality Not available.
Flu Activity Not available.
METAR KBXK 011135Z AUTO 32003KT 10SM CLR 15/09 A2976 RMK AO1

More Conditions Fewer Conditions

Pressure 29.76 in
Visibility 10.0 miles
Clouds Clear
Dew Point 48 °F
Humidity 67%
Rainfall 0.00 in
Snow Depth 1 in , 1 in , 0 in
UV 0 out of 12
Pollen 6.00 out of 12
Air Quality Not available.
Flu Activity Not available.
METAR KBXK 011135Z AUTO 32003KT 10SM CLR 15/09 A2976 RMK AO1

More Conditions Fewer Conditions

10-Day Weather Forecast

Almanac

Astronomy

Oct. 01, 2014 Rise Set
Actual Time 6:25 AM MST 6:16 PM MST
Civil Twilight 6:01 AM MST 6:40 PM MST
Nautical Twilight 5:32 AM MST 7:08 PM MST
Astronomical Twilight 5:03 AM MST 7:37 PM MST
Moon 1:15 PM MST No Moon Set
Length of Visible Light 12h 39m
Length of Day
11h 50m
Tomorrow will be 1m 58s shorter.
Waxing Crescent, 47% of the Moon is Illuminated
Today
Waxing Crescent
Oct 1
First Quarter
Oct 8
Full
Oct 15
Last Quarter
Oct 23
New

Today's Extremes

State Highs State Lows

Community

WunderPhotos

Upload Photos

1,757,914 photos uploaded!

Nearby

Snow Depth

Station Depth Elevation
Mormon Mountain 1 in 7500 ft
Maverick Fork 1 in 9200 ft
Baker Butte 0 in 7300 ft
Snowslide Canyon 1 in 9730 ft
Workman Creek 2 in 6900 ft

Earthquake Activity

City Distance Mag. Time & Date
No recent earthquake activity has been reported nearby.
Minimum magnitude displayed is 2.5.

Coastal Water Temperatures

Place Temperature
No Stations Reporting

Nearby Weather Stations